Aérodrome :
LOGIN :

S'inscrire | Disclaimer

   EN    FR    IT 

 










Légende :    VFR   VFR Marginal   IFR   IFR Intensif   IFR Très Intensif
Visi : 
Plafond : 
>= 8 km
>= 3000ft
5 à 8 km
1000 à 3000 ft
1500m à 5 km
500 à 1000 ft
800 à 1500m
200 à 500 ft
< 800m
< 200 ft
Symboles :   Orages  Brouillard  Fortes neiges  Fortes précipitations  Vent > 20 kt
SIGMETs :   Divers  Orages  Givrage  Turbulence  Onde Orograph.  Cendres Volcan.







- Altitude de l'aérodrome : 228 ft
- Code IATA : OPO


LPPR - Porto Fr. Sa Carneiro

DERNIER METAR :
  • 200630Z 01004KT 0800 R17/0900U FG BKN002 15/15 Q1020

METARs EXPIRÉS :
  • 200600Z 01005KT 0700 R17/0800N FG BKN002 15/15 Q1020
  • 200530Z 01004KT 0700 R17/0900 FG BKN002 15/15 Q1020
  • 200500Z 02003KT 340V060 0600 R17/0900 FG BKN002 15/15 Q1020
  • 200430Z VRB02KT 0500 R17/0600N FG BKN001 15/15 Q1020
  • 200400Z 34003KT 0500 R17/0600 FG BKN001 15/15 Q1020

TAF TAF LPPR
Valide du 20 à 06h jusqu'au 21 à 06h UTC


200500Z 2006/2106 VRB03KT 0500 FG BKN000
TEMPO 2006/2008 5000 BR BKN004
BECMG 2008/2010 9999 NSW FEW008
BECMG 2010/2012 33010KT
PROB30
TEMPO 2010/2018 5000 BR BKN008
BECMG 2018/2020 VRB03KT 3000 BR BKN004
TEMPO 2022/2106 0800 FG BKN001
Pas de NOTAMs connus pour ce terrain.



MET'MAP, la Météo Aéronautique d'un coup d'oeil ! - Copyright ORBIFLY Décembre 2007 - Disclaimer

ORBIFLY MET'MAP TEAM :

Programmation & Développement : Alexandra Zaïnal
Conception & Développement : Baudouin d'Aumeries
Co-Programmation & Développement : Marc-Olivier Méhu
Soutien technique & logistique : Manuel Goepfert

Contact : metmap@orbifly.com




SOURCES & CREDITS :

   NOAA